Time;durP1;ratioP1;P1;durP2;ratioP2;P2;SDS_P1;SDS_P2;PMS_P1;PMS_P2;Temp;Humidity;BMP_temperature;BMP_pressure;BME280_temperature;BME280_humidity;BME280_pressure;Samples;Min_cycle;Max_cycle;Signal;HPM_P1;HPM_P2
2022/11/10 00:02:23;;;;;;;5.80;2.20;;;;;;;11.74;77.30;100803.44;5058879;28;20203;-83
2022/11/10 00:04:50;;;;;;;6.37;2.43;;;;;;;11.75;77.44;100810.50;5054443;28;20218;-84
2022/11/10 00:07:16;;;;;;;5.93;2.40;;;;;;;11.74;77.44;100808.78;5055330;28;20205;-83
2022/11/10 00:09:42;;;;;;;10.07;2.70;;;;;;;11.74;77.48;100808.78;5056340;28;20704;-83
2022/11/10 00:12:10;;;;;;;7.43;2.20;;;;;;;11.74;77.69;100822.13;5068173;28;20722;-83
2022/11/10 00:17:21;;;;;;;6.73;2.60;;;;;;;11.71;77.62;100819.66;5062212;28;20235;-84
2022/11/10 00:19:47;;;;;;;7.27;2.60;;;;;;;11.70;77.81;100817.09;5057186;28;20634;-84
2022/11/10 00:22:14;;;;;;;8.30;2.20;;;;;;;11.68;77.88;100833.19;5056948;28;20285;-84
2022/11/10 00:24:40;;;;;;;10.83;2.70;;;;;;;11.66;77.84;100826.25;5064031;28;20213;-83
2022/11/10 00:27:06;;;;;;;8.03;2.30;;;;;;;11.64;77.83;100834.38;5055648;28;20220;-84
2022/11/10 00:29:34;;;;;;;6.90;2.40;;;;;;;11.62;78.04;100830.09;5055406;28;20225;-84
2022/11/10 00:32:02;;;;;;;8.77;2.97;;;;;;;11.60;78.18;100832.84;5059376;28;20659;-83
2022/11/10 00:34:28;;;;;;;8.60;3.43;;;;;;;11.62;78.17;100836.28;5058804;28;20210;-83
2022/11/10 00:36:55;;;;;;;5.87;2.60;;;;;;;11.58;78.29;100836.56;5052752;28;20203;-82
2022/11/10 00:39:23;;;;;;;3.20;2.47;;;;;;;11.57;78.35;100843.72;5054201;28;20217;-83
2022/11/10 00:41:49;;;;;;;5.67;3.10;;;;;;;11.53;78.63;100852.84;5054872;28;20212;-83
2022/11/10 00:44:16;;;;;;;6.70;3.60;;;;;;;11.54;78.72;100859.06;5063663;28;20209;-83
2022/11/10 00:46:44;;;;;;;7.93;3.73;;;;;;;11.52;78.82;100844.94;5059922;28;20574;-82
2022/11/10 00:49:11;;;;;;;8.43;3.53;;;;;;;11.50;78.91;100839.72;5061007;28;20652;-83
2022/11/10 00:51:38;;;;;;;7.30;4.60;;;;;;;11.47;78.68;100848.75;5062967;28;20206;-82
2022/11/10 00:54:04;;;;;;;8.17;3.80;;;;;;;11.45;78.99;100850.69;5066879;28;20211;-83
2022/11/10 00:56:31;;;;;;;9.03;4.50;;;;;;;11.43;79.13;100849.09;5061637;28;20646;-83
2022/11/10 00:58:57;;;;;;;5.77;4.10;;;;;;;11.39;79.38;100845.75;5060895;28;20239;-83
2022/11/10 01:01:25;;;;;;;7.43;4.33;;;;;;;11.35;79.74;100856.69;5065379;28;20220;-83
2022/11/10 01:03:53;;;;;;;9.30;4.10;;;;;;;11.32;79.98;100854.22;5056887;28;20215;-84
2022/11/10 01:06:21;;;;;;;6.47;3.10;;;;;;;11.31;79.73;100860.50;5059553;28;20219;-83
2022/11/10 01:08:48;;;;;;;7.13;3.47;;;;;;;11.28;79.98;100858.06;5054344;28;20220;-83
2022/11/10 01:11:17;;;;;;;8.23;3.60;;;;;;;11.23;80.28;100871.66;5062162;28;20213;-84
2022/11/10 01:13:45;;;;;;;7.73;3.50;;;;;;;11.22;80.42;100874.44;5055423;28;20213;-81
2022/11/10 01:16:14;;;;;;;6.10;3.43;;;;;;;11.18;80.59;100881.75;5060189;28;20203;-82
2022/11/10 01:18:41;;;;;;;7.50;3.13;;;;;;;11.15;80.82;100884.59;5065595;28;20216;-81
2022/11/10 01:21:09;;;;;;;6.87;3.77;;;;;;;11.12;80.89;100885.66;5062977;28;20207;-82
2022/11/10 01:23:36;;;;;;;7.40;3.10;;;;;;;11.13;80.93;100886.50;5059109;28;20233;-85
2022/11/10 01:26:04;;;;;;;10.07;4.10;;;;;;;11.11;80.86;100883.94;5043642;28;20210;-83
2022/11/10 01:28:32;;;;;;;7.67;3.47;;;;;;;11.09;80.85;100890.34;5050052;28;20227;-83
2022/11/10 01:30:58;;;;;;;10.17;3.70;;;;;;;11.06;81.11;100891.38;5063050;28;20221;-83
2022/11/10 01:33:25;;;;;;;8.17;3.30;;;;;;;11.05;81.21;100887.00;5048352;28;20248;-83
2022/11/10 01:35:52;;;;;;;7.20;3.20;;;;;;;11.03;81.20;100880.91;5052746;28;20607;-83
2022/11/10 01:38:20;;;;;;;5.63;3.30;;;;;;;11.02;81.36;100883.66;5054164;28;20216;-83
2022/11/10 01:40:46;;;;;;;7.43;3.57;;;;;;;11.00;81.29;100894.41;5052213;28;20236;-83
2022/11/10 01:43:13;;;;;;;8.53;3.40;;;;;;;11.01;81.21;100896.13;5050367;28;20236;-84
2022/11/10 01:45:45;;;;;;;9.90;3.73;;;;;;;10.98;81.32;100896.31;5050127;28;20213;-85
2022/11/10 01:48:16;;;;;;;8.80;3.73;;;;;;;10.95;81.56;100899.16;5059193;28;20221;-84
2022/11/10 01:50:44;;;;;;;11.17;4.23;;;;;;;10.93;81.89;100908.19;5057397;28;20226;-85
2022/11/10 01:53:16;;;;;;;7.23;4.23;;;;;;;10.93;81.85;100903.72;5059804;28;20201;-84
2022/11/10 01:55:45;;;;;;;12.70;3.93;;;;;;;10.90;82.04;100903.94;5051683;28;20203;-85
2022/11/10 01:58:15;;;;;;;7.33;3.83;;;;;;;10.87;81.62;100914.75;5060318;28;20203;-84
2022/11/10 02:00:43;;;;;;;10.57;4.27;;;;;;;10.85;82.02;100914.00;5063494;28;20539;-85
2022/11/10 02:03:14;;;;;;;7.93;3.67;;;;;;;10.85;81.86;100910.47;5062650;28;20203;-85
2022/11/10 02:05:43;;;;;;;7.80;4.27;;;;;;;10.83;81.78;100918.56;5059986;28;20316;-84
2022/11/10 02:08:12;;;;;;;7.30;4.50;;;;;;;10.80;82.10;100918.72;5057506;28;20229;-84
2022/11/10 02:10:53;;;;;;;11.00;4.10;;;;;;;10.78;82.35;100920.63;5061549;28;20234;-85
2022/11/10 02:13:20;;;;;;;9.80;4.10;;;;;;;10.77;82.34;100927.75;5056384;28;20205;-84
2022/11/10 02:15:46;;;;;;;9.47;4.33;;;;;;;10.74;82.30;100929.78;5064932;28;20210;-84
2022/11/10 02:18:13;;;;;;;8.67;3.83;;;;;;;10.71;82.36;100936.13;5058317;28;20214;-83
2022/11/10 02:20:44;;;;;;;7.50;3.90;;;;;;;10.69;82.55;100945.16;5053497;28;20219;-82
2022/11/10 02:23:12;;;;;;;10.57;4.80;;;;;;;10.69;82.58;100946.03;5062944;28;20205;-82
2022/11/10 02:25:39;;;;;;;9.00;4.23;;;;;;;10.65;82.62;100948.94;5059866;28;20212;-84
2022/11/10 02:28:05;;;;;;;8.13;4.30;;;;;;;10.63;83.01;100950.84;5053368;28;20226;-82
2022/11/10 02:30:32;;;;;;;9.33;4.57;;;;;;;10.60;83.01;100957.19;5053994;28;20228;-82
2022/11/10 02:32:58;;;;;;;9.97;4.47;;;;;;;10.58;83.35;100951.09;5057954;28;20593;-83
2022/11/10 02:35:25;;;;;;;11.73;4.77;;;;;;;10.59;83.35;100959.94;5059891;28;20237;-82
2022/11/10 02:37:53;;;;;;;11.57;5.23;;;;;;;10.56;83.60;100960.16;5059301;28;20219;-83
2022/11/10 02:40:19;;;;;;;12.83;5.60;;;;;;;10.54;83.95;100962.91;5064155;28;20238;-83
2022/11/10 02:42:45;;;;;;;11.00;5.00;;;;;;;10.52;83.55;100967.47;5059619;28;20207;-84
2022/11/10 02:45:12;;;;;;;7.60;4.40;;;;;;;10.49;84.02;100972.97;5057339;28;20214;-83
2022/11/10 02:47:38;;;;;;;9.63;5.50;;;;;;;10.50;84.07;100973.81;5059347;28;20201;-83
2022/11/10 02:50:06;;;;;;;10.17;4.60;;;;;;;10.47;84.12;100985.50;5060989;28;20225;-81
2022/11/10 02:52:32;;;;;;;11.57;5.83;;;;;;;10.44;84.17;100972.34;5063110;28;20208;-84
2022/11/10 02:55:00;;;;;;;11.93;5.50;;;;;;;10.40;84.46;100977.00;5069303;28;20213;-84
2022/11/10 02:57:26;;;;;;;10.37;5.20;;;;;;;10.40;84.67;100982.31;5056614;28;20691;-81
2022/11/10 02:59:53;;;;;;;7.47;5.57;;;;;;;10.40;84.76;100987.66;5057319;28;20228;-84
2022/11/10 03:02:19;;;;;;;12.03;5.60;;;;;;;10.38;84.64;100986.91;5060310;28;20202;-84
2022/11/10 03:04:46;;;;;;;9.40;5.43;;;;;;;10.38;84.87;100992.22;5057672;28;20205;-82
2022/11/10 03:07:12;;;;;;;11.47;6.27;;;;;;;10.38;84.90;100992.22;5062179;28;20216;-82
2022/11/10 03:09:39;;;;;;;9.53;6.03;;;;;;;10.38;85.39;100994.03;5059926;28;20233;-82
2022/11/10 03:12:07;;;;;;;16.03;6.37;;;;;;;10.34;85.68;100982.69;5060865;28;20572;-85
2022/11/10 03:14:33;;;;;;;9.37;6.27;;;;;;;10.33;85.92;100980.97;5054352;28;20216;-84
2022/11/10 03:17:00;;;;;;;11.43;5.50;;;;;;;10.33;85.40;100996.09;5063192;28;20202;-81
2022/11/10 03:19:26;;;;;;;8.30;5.93;;;;;;;10.29;86.26;100998.06;5059785;28;20229;-83
2022/11/10 03:21:53;;;;;;;13.40;6.17;;;;;;;10.29;86.25;101000.72;5061550;28;20218;-85
2022/11/10 03:24:19;;;;;;;10.20;5.77;;;;;;;10.29;86.30;101011.38;5053045;28;20206;-83
2022/11/10 03:26:46;;;;;;;13.33;6.67;;;;;;;10.28;86.22;101014.97;5055531;28;20642;-83
2022/11/10 03:29:13;;;;;;;8.03;6.33;;;;;;;10.26;86.31;101016.00;5065597;28;20236;-83
2022/11/10 03:31:40;;;;;;;11.30;6.97;;;;;;;10.25;86.54;101015.16;5052511;28;20213;-84
2022/11/10 03:34:06;;;;;;;14.63;6.27;;;;;;;10.24;86.58;101017.88;5055903;28;20197;-83
2022/11/10 03:36:33;;;;;;;12.83;6.17;;;;;;;10.24;86.55;101023.22;5058496;28;20205;-82
2022/11/10 03:38:59;;;;;;;9.10;5.97;;;;;;;10.22;87.01;101020.63;5054179;28;20217;-83
2022/11/10 03:41:26;;;;;;;10.97;6.60;;;;;;;10.22;87.13;101020.63;5066867;28;20205;-82
2022/11/10 03:43:52;;;;;;;15.43;7.20;;;;;;;10.19;87.15;101027.97;5064014;28;20205;-84
2022/11/10 03:46:20;;;;;;;8.33;7.17;;;;;;;10.19;87.20;101026.16;5059052;28;20205;-84
2022/11/10 03:48:46;;;;;;;14.40;6.80;;;;;;;10.19;87.20;101027.97;5061148;28;20226;-84
2022/11/10 03:51:13;;;;;;;12.20;6.97;;;;;;;10.19;87.36;101025.28;5059845;28;20203;-85
2022/11/10 03:53:39;;;;;;;13.23;7.30;;;;;;;10.16;88.04;101036.06;5058421;28;20206;-84
2022/11/10 03:56:06;;;;;;;11.17;6.67;;;;;;;10.15;88.06;101034.34;5059877;28;20209;-83
2022/11/10 03:58:33;;;;;;;10.03;7.07;;;;;;;10.13;88.32;101037.09;5061839;28;20210;-84
2022/11/10 04:00:59;;;;;;;10.60;7.13;;;;;;;10.12;88.21;101039.84;5065751;28;20205;-83
2022/11/10 04:03:27;;;;;;;11.20;6.70;;;;;;;10.10;87.95;101042.59;5061979;28;20202;-84
2022/11/10 04:16:47;;;;;;;11.57;7.70;;;;;;;10.07;88.63;101069.34;5054285;28;20220;-80
2022/11/10 04:19:15;;;;;;;9.57;7.40;;;;;;;10.06;88.79;101067.63;5062771;28;20216;-81
2022/11/10 04:21:41;;;;;;;11.70;7.27;;;;;;;10.05;89.25;101076.56;5053986;28;20213;-81
2022/11/10 04:24:08;;;;;;;15.00;7.10;;;;;;;10.05;89.58;101079.22;5057364;28;20561;-82
2022/11/10 04:26:37;;;;;;;16.97;7.43;;;;;;;10.05;88.97;101079.22;5069326;28;20193;-82
2022/11/10 04:29:05;;;;;;;11.97;6.80;;;;;;;10.08;89.59;101082.59;5073592;28;20267;-81
2022/11/10 04:31:34;;;;;;;13.27;6.43;;;;;;;10.09;89.51;101076.31;5073917;28;20656;-80
2022/11/10 04:34:01;;;;;;;16.60;7.60;;;;;;;10.10;89.93;101069.19;5071006;28;20220;-81
2022/11/10 04:36:30;;;;;;;12.03;8.30;;;;;;;10.10;90.06;101083.38;5053567;28;20239;-81
2022/11/10 04:38:57;;;;;;;11.07;6.77;;;;;;;10.13;89.82;101092.13;5053228;28;20221;-81
2022/11/10 04:41:25;;;;;;;12.93;7.37;;;;;;;10.12;89.59;101093.94;5053140;28;20569;-82
2022/11/10 04:43:52;;;;;;;17.53;7.97;;;;;;;10.12;89.78;101093.94;5053160;28;20948;-83
2022/11/10 04:46:22;;;;;;;11.37;7.03;;;;;;;10.15;90.13;101095.56;5052624;28;20300;-81
2022/11/10 04:48:49;;;;;;;15.77;7.77;;;;;;;10.14;89.66;101099.16;5053041;28;20230;-81
2022/11/10 04:51:16;;;;;;;11.73;8.07;;;;;;;10.14;90.24;101099.16;5053168;28;20656;-81
2022/11/10 04:53:44;;;;;;;13.67;8.07;;;;;;;10.14;90.23;101110.69;5053365;28;20679;-82
2022/11/10 04:56:14;;;;;;;15.93;7.23;;;;;;;10.14;90.41;101113.34;5053174;28;20209;-83
2022/11/10 04:58:40;;;;;;;14.77;7.57;;;;;;;10.16;90.05;101119.44;5052841;28;20664;-82
2022/11/10 05:01:07;;;;;;;12.03;7.73;;;;;;;10.15;90.25;101125.72;5052114;28;20213;-82
2022/11/10 05:03:33;;;;;;;14.67;8.67;;;;;;;10.16;90.46;101127.44;5059805;28;20197;-82
2022/11/10 05:06:00;;;;;;;13.13;7.67;;;;;;;10.17;90.26;101139.78;5071698;28;20294;-81
2022/11/10 05:08:26;;;;;;;17.60;8.83;;;;;;;10.18;90.35;101141.53;5053569;28;20217;-81
2022/11/10 05:10:54;;;;;;;14.03;7.40;;;;;;;10.20;90.52;101147.66;5052434;28;20737;-81
2022/11/10 05:13:20;;;;;;;19.00;7.33;;;;;;;10.22;90.80;101136.91;5057999;28;20825;-82
2022/11/10 05:15:47;;;;;;;16.20;8.20;;;;;;;10.22;90.45;101148.41;5072413;28;20231;-81
2022/11/10 05:18:13;;;;;;;13.50;7.73;;;;;;;10.24;90.57;101151.00;5063599;28;20207;-83
2022/11/10 05:20:40;;;;;;;14.20;7.73;;;;;;;10.24;90.42;101162.50;5059142;28;20219;-83
2022/11/10 05:25:51;;;;;;;13.80;7.60;;;;;;;10.23;90.71;101155.44;5057260;28;20237;-82
2022/11/10 05:28:18;;;;;;;14.33;7.20;;;;;;;10.26;90.91;101157.94;5057697;28;20207;-82
2022/11/10 05:30:45;;;;;;;15.07;7.60;;;;;;;10.29;90.81;101160.44;5054852;28;20307;-83
2022/11/10 05:33:12;;;;;;;17.50;7.93;;;;;;;10.28;90.64;101153.41;5061232;28;20204;-82
2022/11/10 05:35:39;;;;;;;11.43;7.43;;;;;;;10.30;90.18;101150.66;5063254;28;20762;-83
2022/11/10 05:38:06;;;;;;;10.97;7.57;;;;;;;10.27;90.83;101154.34;5062518;28;20204;-82
2022/11/10 05:40:34;;;;;;;11.37;7.70;;;;;;;10.30;90.73;101161.31;5058836;28;20217;-83
2022/11/10 05:43:01;;;;;;;16.90;8.10;;;;;;;10.31;91.01;101179.00;5058455;28;20737;-83
2022/11/10 05:45:29;;;;;;;16.60;8.30;;;;;;;10.30;90.54;101180.81;5057108;28;20207;-82
2022/11/10 05:47:56;;;;;;;16.07;9.03;;;;;;;10.31;90.73;101179.00;5063672;28;20205;-82
2022/11/10 05:50:24;;;;;;;14.13;8.43;;;;;;;10.33;90.81;101177.13;5062939;28;20238;-81
2022/11/10 05:52:53;;;;;;;12.80;8.40;;;;;;;10.34;90.77;101179.72;5059871;28;20263;-81
2022/11/10 05:55:22;;;;;;;10.93;7.43;;;;;;;10.35;90.92;101189.41;5062585;28;20206;-81
2022/11/10 05:57:50;;;;;;;12.77;7.70;;;;;;;10.35;91.12;101185.91;5068492;28;20596;-83
2022/11/10 06:00:20;;;;;;;13.77;6.97;;;;;;;10.39;91.15;101200.78;5055520;28;20230;-82
2022/11/10 06:02:56;;;;;;;12.77;7.00;;;;;;;10.43;91.12;101203.16;5057436;28;20213;-83
2022/11/10 06:05:23;;;;;;;13.90;6.47;;;;;;;10.46;90.83;101199.47;5058907;28;20203;-82
2022/11/10 06:07:49;;;;;;;20.13;7.27;;;;;;;10.44;90.97;101207.53;5062010;28;20216;-84
2022/11/10 06:10:16;;;;;;;10.70;6.07;;;;;;;10.46;90.98;101215.47;5057565;28;20237;-82
2022/11/10 06:12:42;;;;;;;11.00;6.30;;;;;;;10.46;91.26;101218.13;5053159;28;20199;-84
2022/11/10 06:15:10;;;;;;;11.23;6.53;;;;;;;10.47;91.22;101218.97;5052544;28;20206;-83
2022/11/10 06:17:37;;;;;;;11.63;6.13;;;;;;;10.49;91.10;101219.75;5054702;28;20217;-82
2022/11/10 06:20:06;;;;;;;12.73;6.50;;;;;;;10.49;91.18;101230.41;5054203;28;20301;-82
2022/11/10 06:22:33;;;;;;;14.33;6.83;;;;;;;10.50;91.21;101232.13;5056672;28;20676;-82
2022/11/10 06:24:59;;;;;;;18.53;7.17;;;;;;;10.51;91.01;101239.19;5056188;28;20205;-84
2022/11/10 06:27:26;;;;;;;12.27;6.30;;;;;;;10.52;91.16;101248.91;5051997;28;20644;-84
2022/11/10 06:29:52;;;;;;;11.10;6.03;;;;;;;10.53;91.35;101248.81;5058739;28;20238;-84
2022/11/10 06:32:19;;;;;;;12.43;6.70;;;;;;;10.54;90.91;101260.34;5050544;28;20220;-82
2022/11/10 06:34:45;;;;;;;14.50;6.70;;;;;;;10.55;91.09;101268.25;5055223;28;20214;-83
2022/11/10 06:37:13;;;;;;;8.70;5.80;;;;;;;10.55;91.10;101259.41;5055931;28;20206;-83
2022/11/10 06:39:40;;;;;;;12.00;6.30;;;;;;;10.56;91.27;101250.47;5054629;28;20403;-83
2022/11/10 06:42:06;;;;;;;13.43;6.73;;;;;;;10.56;90.83;101247.81;5057630;28;20199;-83
2022/11/10 06:44:32;;;;;;;10.03;6.23;;;;;;;10.59;91.20;101258.25;5059337;28;20212;-83
2022/11/10 06:46:59;;;;;;;10.10;6.00;;;;;;;10.60;90.80;101274.16;5053000;28;20209;-83
2022/11/10 06:49:26;;;;;;;11.50;5.50;;;;;;;10.61;90.92;101270.56;5056905;28;20242;-83
2022/11/10 06:51:52;;;;;;;8.57;5.57;;;;;;;10.62;90.95;101274.94;5058002;28;20214;-83
2022/11/10 06:54:21;;;;;;;10.47;5.37;;;;;;;10.62;91.01;101272.28;5060701;28;20209;-83
2022/11/10 06:56:47;;;;;;;12.13;5.70;;;;;;;10.63;91.17;101287.31;5060467;28;20238;-83
2022/11/10 06:59:14;;;;;;;15.47;5.93;;;;;;;10.64;91.08;101293.50;5055462;28;20711;-84
2022/11/10 07:01:40;;;;;;;15.93;5.43;;;;;;;10.65;91.17;101306.75;5058354;28;20656;-83
2022/11/10 07:04:06;;;;;;;9.53;5.63;;;;;;;10.67;91.12;101304.88;5062591;28;20217;-83
2022/11/10 07:06:33;;;;;;;12.80;5.50;;;;;;;10.68;90.91;101316.38;5056702;28;20701;-83
2022/11/10 07:08:59;;;;;;;14.83;5.80;;;;;;;10.68;90.90;101314.59;5058962;28;20222;-83
2022/11/10 07:11:27;;;;;;;17.57;6.10;;;;;;;10.70;91.12;101319.84;5063334;28;20217;-82
2022/11/10 07:13:54;;;;;;;11.00;5.83;;;;;;;10.68;91.24;101335.03;5057333;28;20755;-83
2022/11/10 07:16:20;;;;;;;16.70;6.63;;;;;;;10.70;91.18;101328.69;5056763;28;20656;-83
2022/11/10 07:18:47;;;;;;;9.63;6.93;;;;;;;10.72;91.28;101336.59;5059589;28;20608;-83
2022/11/10 07:21:13;;;;;;;14.20;7.60;;;;;;;10.72;91.37;101333.94;5056473;28;20199;-83
2022/11/10 07:23:40;;;;;;;11.53;6.90;;;;;;;10.73;91.31;101325.88;5056582;28;20212;-83
2022/11/10 07:26:07;;;;;;;16.73;7.93;;;;;;;10.74;91.32;101329.41;5057828;28;20205;-83
2022/11/10 07:28:35;;;;;;;15.10;6.37;;;;;;;10.74;91.26;101332.91;5059051;28;20213;-83
2022/11/10 07:31:02;;;;;;;18.60;7.33;;;;;;;10.75;91.17;101339.09;5056436;28;20224;-83
2022/11/10 07:33:28;;;;;;;11.43;6.53;;;;;;;10.76;91.17;101348.78;5061679;28;20229;-83
2022/11/10 07:35:57;;;;;;;13.73;6.67;;;;;;;10.76;91.01;101351.47;5057894;28;20218;-83
2022/11/10 07:38:23;;;;;;;23.40;6.90;;;;;;;10.79;91.15;101357.50;5055034;28;20672;-83
2022/11/10 07:40:52;;;;;;;12.00;5.97;;;;;;;10.81;91.14;101354.75;5052239;28;20217;-83
2022/11/10 07:43:18;;;;;;;12.77;5.70;;;;;;;10.84;91.04;101365.25;5065227;28;20251;-83
2022/11/10 07:45:46;;;;;;;12.77;5.80;;;;;;;10.86;91.22;101363.38;5069354;28;20573;-83
2022/11/10 07:48:13;;;;;;;13.33;5.37;;;;;;;10.88;91.14;101365.97;5061467;28;20202;-83
2022/11/10 07:50:39;;;;;;;13.13;5.30;;;;;;;10.90;91.25;101367.59;5063028;28;20234;-83
2022/11/10 07:53:08;;;;;;;11.20;4.60;;;;;;;10.92;90.92;101364.84;5065041;28;20611;-83
2022/11/10 07:55:36;;;;;;;11.33;5.70;;;;;;;10.93;90.71;101364.75;5060433;28;20205;-82
2022/11/10 07:58:02;;;;;;;12.00;5.10;;;;;;;10.96;91.01;101379.72;5058929;28;20218;-83
2022/11/10 08:00:29;;;;;;;13.97;4.53;;;;;;;10.98;90.98;101384.03;5067710;28;20228;-82
2022/11/10 08:03:03;;;;;;;13.87;4.53;;;;;;;10.98;90.73;101373.38;5065281;28;20209;-83
2022/11/10 08:05:30;;;;;;;10.90;4.97;;;;;;;11.00;90.96;101375.94;5059696;28;20203;-83
2022/11/10 08:07:56;;;;;;;19.53;5.37;;;;;;;11.01;90.96;101389.19;5061289;28;20201;-83
2022/11/10 08:10:23;;;;;;;11.13;4.73;;;;;;;11.04;90.93;101399.72;5065650;28;20229;-84
2022/11/10 08:12:54;;;;;;;12.03;5.33;;;;;;;11.04;91.16;101405.03;5061732;28;20206;-83
2022/11/10 08:15:20;;;;;;;11.70;5.30;;;;;;;11.06;91.11;101412.94;5071271;28;20220;-83
2022/11/10 08:17:46;;;;;;;11.10;5.10;;;;;;;11.09;91.00;101419.00;5064935;28;20213;-83
2022/11/10 08:20:14;;;;;;;14.70;5.67;;;;;;;11.12;91.12;101423.28;5064124;28;20224;-83
2022/11/10 08:22:41;;;;;;;14.43;5.23;;;;;;;11.13;91.37;101427.66;5065695;28;20207;-83
2022/11/10 08:25:08;;;;;;;13.87;5.03;;;;;;;11.17;90.91;101431.91;5061422;28;20196;-83
2022/11/10 08:27:35;;;;;;;12.80;5.10;;;;;;;11.20;91.23;101438.88;5059198;28;20201;-83
2022/11/10 08:30:01;;;;;;;10.57;4.90;;;;;;;11.24;91.28;101437.78;5058530;28;20233;-83
2022/11/10 08:32:28;;;;;;;8.47;4.50;;;;;;;11.32;91.27;101438.19;5052688;28;20208;-83
2022/11/10 08:34:54;;;;;;;9.07;4.37;;;;;;;11.37;91.28;101450.34;5061385;28;20212;-83
2022/11/10 08:37:23;;;;;;;10.23;4.43;;;;;;;11.46;91.13;101463.19;5068016;28;20214;-83
2022/11/10 08:39:49;;;;;;;19.83;5.30;;;;;;;11.58;90.74;101469.69;5067803;28;20294;-83
2022/11/10 08:42:15;;;;;;;12.37;4.30;;;;;;;11.66;90.46;101469.25;5074014;28;20628;-84
2022/11/10 08:44:42;;;;;;;13.30;4.30;;;;;;;11.70;89.83;101468.13;5067008;28;20714;-83
2022/11/10 08:47:08;;;;;;;9.57;4.43;;;;;;;11.74;88.97;101467.88;5060885;28;20570;-83
2022/11/10 08:49:35;;;;;;;14.07;3.90;;;;;;;11.79;88.66;101462.34;5059768;28;20561;-83
2022/11/10 08:52:01;;;;;;;12.47;4.10;;;;;;;11.80;88.17;101475.59;5063667;28;20206;-83
2022/11/10 08:54:29;;;;;;;11.67;4.37;;;;;;;11.85;87.68;101472.66;5063041;28;20297;-82
2022/11/10 08:56:56;;;;;;;7.60;3.73;;;;;;;11.90;87.16;101477.75;5063517;28;20404;-83
2022/11/10 08:59:22;;;;;;;8.87;3.80;;;;;;;11.95;86.77;101481.88;5059113;28;20224;-83
2022/11/10 09:01:49;;;;;;;12.83;4.47;;;;;;;11.99;86.24;101480.78;5061079;28;20231;-83
2022/11/10 09:04:15;;;;;;;11.13;4.03;;;;;;;12.04;86.12;101473.34;5058219;28;20209;-82
2022/11/10 09:06:42;;;;;;;15.70;4.03;;;;;;;12.10;85.61;101485.50;5058107;28;20200;-83
2022/11/10 09:09:09;;;;;;;7.43;3.80;;;;;;;12.15;85.36;101486.97;5057563;28;20225;-83
2022/11/10 09:11:37;;;;;;;10.60;3.43;;;;;;;12.20;84.64;101500.03;5057260;28;20229;-83
2022/11/10 09:14:03;;;;;;;9.30;3.80;;;;;;;12.22;84.36;101498.16;5058185;28;21536;-83
2022/11/10 09:16:30;;;;;;;11.10;4.53;;;;;;;12.25;84.15;101511.34;5066124;28;20592;-83
2022/11/10 09:18:56;;;;;;;7.93;3.70;;;;;;;12.28;83.59;101512.97;5062134;28;20289;-83
2022/11/10 09:21:22;;;;;;;13.30;3.87;;;;;;;12.33;83.26;101519.78;5062305;28;20210;-83
2022/11/10 09:23:49;;;;;;;9.87;4.20;;;;;;;12.32;82.79;101525.22;5059183;28;20209;-84
2022/11/10 09:26:15;;;;;;;10.73;4.73;;;;;;;12.31;82.21;101529.69;5061788;28;20208;-82
2022/11/10 09:28:43;;;;;;;9.60;4.60;;;;;;;12.32;81.77;101530.56;5066394;28;20222;-83
2022/11/10 09:31:10;;;;;;;11.13;5.30;;;;;;;12.34;81.27;101542.88;5051217;28;20225;-83
2022/11/10 09:33:36;;;;;;;13.13;4.10;;;;;;;12.36;81.04;101532.94;5060982;28;20224;-83
2022/11/10 09:36:03;;;;;;;15.13;5.40;;;;;;;12.40;80.44;101539.84;5059208;28;20208;-82
2022/11/10 09:38:29;;;;;;;13.47;5.27;;;;;;;12.42;80.18;101543.28;5063098;28;20210;-82
2022/11/10 09:41:01;;;;;;;8.07;4.30;;;;;;;12.43;79.77;101542.34;5050974;28;20232;-82
2022/11/10 09:43:33;;;;;;;13.37;4.70;;;;;;;12.47;79.41;101535.88;5055090;28;20197;-82
2022/11/10 09:46:08;;;;;;;11.90;4.47;;;;;;;12.49;79.30;101539.34;5060399;28;20213;-82
2022/11/10 09:48:42;;;;;;;9.10;4.83;;;;;;;12.55;78.95;101531.91;5053138;28;20704;-83
2022/11/10 09:51:11;;;;;;;10.30;4.23;;;;;;;12.62;79.04;101542.16;5051779;28;20219;-82
2022/11/10 09:53:43;;;;;;;9.53;3.93;;;;;;;12.66;78.97;101537.50;5050968;28;20204;-82
2022/11/10 09:56:16;;;;;;;6.20;3.20;;;;;;;12.68;78.73;101540.94;5049140;28;20199;-83
2022/11/10 09:58:45;;;;;;;9.07;4.20;;;;;;;12.68;77.99;101554.31;5051599;28;20202;-83
2022/11/10 10:01:28;;;;;;;11.20;4.10;;;;;;;12.65;77.71;101558.03;5060390;28;20201;-83
2022/11/10 10:04:05;;;;;;;9.27;3.83;;;;;;;12.66;77.45;101551.72;5058528;28;20291;-83
2022/11/10 10:06:36;;;;;;;6.87;3.23;;;;;;;12.68;77.50;101546.28;5056868;28;20216;-82
2022/11/10 10:09:11;;;;;;;8.40;3.33;;;;;;;12.69;77.10;101546.22;5059880;28;20232;-83
2022/11/10 10:11:53;;;;;;;11.53;3.60;;;;;;;12.73;77.32;101546.88;5047898;28;20205;-82
2022/11/10 10:14:47;;;;;;;12.83;3.70;;;;;;;12.75;77.02;101548.50;5052634;28;20652;-82
2022/11/10 10:17:22;;;;;;;10.10;3.80;;;;;;;12.77;77.14;101548.41;5061092;28;20240;-82
2022/11/10 10:19:56;;;;;;;11.33;2.97;;;;;;;12.78;76.78;101550.16;5053553;28;20232;-82
2022/11/10 10:22:53;;;;;;;7.83;2.80;;;;;;;12.82;76.24;101543.69;5056099;28;20564;-83
2022/11/10 10:25:23;;;;;;;13.17;2.87;;;;;;;12.85;76.55;101552.38;5057342;28;20216;-82
2022/11/10 10:27:57;;;;;;;9.70;3.37;;;;;;;12.88;76.36;101559.38;5062520;28;20628;-82
2022/11/10 10:30:23;;;;;;;8.67;2.60;;;;;;;12.94;76.17;101559.00;5065123;28;20688;-82
2022/11/10 10:32:57;;;;;;;8.00;3.20;;;;;;;12.99;76.08;101567.59;5077861;28;20209;-82
2022/11/10 10:35:24;;;;;;;10.27;2.87;;;;;;;13.05;76.22;101564.59;5062370;28;21004;-81
2022/11/10 10:37:53;;;;;;;11.63;3.00;;;;;;;13.07;75.58;101572.53;5068359;28;21480;-82
2022/11/10 10:40:22;;;;;;;8.17;2.83;;;;;;;13.11;75.85;101571.34;5064303;28;20217;-82
2022/11/10 10:42:49;;;;;;;10.83;2.73;;;;;;;13.15;75.74;101576.47;5058769;28;20277;-82
2022/11/10 10:45:19;;;;;;;9.03;2.50;;;;;;;13.22;75.93;101576.13;5058598;28;20201;-82
2022/11/10 10:47:46;;;;;;;8.73;2.57;;;;;;;13.24;75.63;101569.72;5066911;28;20205;-82
2022/11/10 10:50:23;;;;;;;8.03;2.37;;;;;;;13.30;75.09;101557.78;5062471;28;20258;-82
2022/11/10 10:53:09;;;;;;;10.03;2.80;;;;;;;13.34;75.42;101556.66;5063394;28;20205;-82
2022/11/10 10:55:36;;;;;;;8.10;3.30;;;;;;;13.40;75.46;101553.63;5067444;28;20634;-82
2022/11/10 10:58:05;;;;;;;13.47;3.70;;;;;;;13.45;75.03;101559.53;5063245;28;20228;-81
2022/11/10 11:00:33;;;;;;;7.57;2.87;;;;;;;13.48;74.83;101560.22;5057898;28;20218;-83
2022/11/10 11:03:06;;;;;;;11.50;3.10;;;;;;;13.54;74.92;101559.84;5064164;28;20302;-83
2022/11/10 11:05:34;;;;;;;8.73;2.60;;;;;;;13.55;74.42;101566.06;5054934;28;20198;-83
2022/11/10 11:08:02;;;;;;;6.27;2.57;;;;;;;13.59;73.90;101561.38;5059856;28;20198;-83
2022/11/10 11:10:32;;;;;;;7.70;2.53;;;;;;;13.63;73.94;101574.47;5061737;28;20632;-83
2022/11/10 11:13:13;;;;;;;7.20;1.87;;;;;;;13.65;73.88;101575.22;5056672;28;20201;-83
2022/11/10 11:15:40;;;;;;;7.73;1.80;;;;;;;13.68;73.37;101580.41;5056737;28;20201;-84
2022/11/10 11:18:14;;;;;;;14.30;3.17;;;;;;;13.68;72.93;101579.53;5061471;28;20216;-84
2022/11/10 11:20:48;;;;;;;5.23;1.63;;;;;;;13.72;72.61;101573.06;5058032;28;20299;-83
2022/11/10 11:23:33;;;;;;;9.23;2.03;;;;;;;13.71;72.21;101580.22;5055208;28;20205;-83
2022/11/10 11:26:09;;;;;;;7.53;2.30;;;;;;;13.71;71.85;101580.22;5069491;28;20209;-82
2022/11/10 11:28:45;;;;;;;4.63;2.33;;;;;;;13.75;71.67;101580.91;5074562;28;20216;-82
2022/11/10 11:31:23;;;;;;;7.90;2.30;;;;;;;13.79;71.42;101587.78;5068151;28;20208;-83
2022/11/10 11:34:01;;;;;;;8.80;2.50;;;;;;;13.80;70.74;101585.00;5067846;28;20208;-84
2022/11/10 11:36:41;;;;;;;8.60;2.20;;;;;;;13.80;70.70;101594.84;5065549;28;20204;-83
2022/11/10 11:39:22;;;;;;;7.47;2.53;;;;;;;13.79;70.66;101601.19;5068296;28;20217;-85
2022/11/10 11:41:59;;;;;;;10.27;2.30;;;;;;;13.77;70.34;101611.13;5069406;28;20645;-82